Terminal Aerodrome Forecast
Issued by NWS Sioux Falls, SD

Home | Current Version | Previous Version | Graphics & Text | Print | Product List | Glossary On
Versions: 1 2 3 4 5 6 7 8 9 10 11 12 13 14 15 16 17
132
FTUS43 KFSD 251132
TAFFSD
TAF
KFSD 251132Z 2512/2612 01012KT P6SM OVC008
     FM251600 02012KT P6SM VCSH OVC010
     FM251800 01013G20KT P6SM RA OVC015
      TEMPO 2518/2521 OVC020
     FM260000 01014G23KT 5SM -RA OVC015
     FM260400 35014KT 6SM -RA OVC008
     FM260600 35014G23KT P6SM OVC008=

USA.gov is the U.S. government's official web portal to all federal, state and local government web resources and services.